sensor_id;sensor_type;location;lat;lon;timestamp;temperature;humidity
11089;DHT22;5598;48.648;8.908;2023-03-11T00:02:08;0.90;99.90
11089;DHT22;5598;48.648;8.908;2023-03-11T00:04:36;0.90;99.90
11089;DHT22;5598;48.648;8.908;2023-03-11T00:07:05;0.80;99.90
11089;DHT22;5598;48.648;8.908;2023-03-11T00:09:32;0.80;99.90
11089;DHT22;5598;48.648;8.908;2023-03-11T00:11:59;0.80;99.90
11089;DHT22;5598;48.648;8.908;2023-03-11T00:14:26;0.90;99.90
11089;DHT22;5598;48.648;8.908;2023-03-11T00:16:55;0.90;99.90
11089;DHT22;5598;48.648;8.908;2023-03-11T00:19:22;1.00;99.90
11089;DHT22;5598;48.648;8.908;2023-03-11T00:21:48;1.00;99.90
11089;DHT22;5598;48.648;8.908;2023-03-11T00:24:15;1.00;99.90
11089;DHT22;5598;48.648;8.908;2023-03-11T00:26:42;1.00;99.90
11089;DHT22;5598;48.648;8.908;2023-03-11T00:29:09;1.10;99.90
11089;DHT22;5598;48.648;8.908;2023-03-11T00:31:35;1.10;99.90
11089;DHT22;5598;48.648;8.908;2023-03-11T00:34:03;1.20;99.90
11089;DHT22;5598;48.648;8.908;2023-03-11T00:36:31;1.30;99.90
11089;DHT22;5598;48.648;8.908;2023-03-11T00:39:00;1.30;99.90
11089;DHT22;5598;48.648;8.908;2023-03-11T00:41:31;1.30;99.90
11089;DHT22;5598;48.648;8.908;2023-03-11T00:43:57;1.30;99.90
11089;DHT22;5598;48.648;8.908;2023-03-11T00:46:25;1.40;99.90
11089;DHT22;5598;48.648;8.908;2023-03-11T00:48:53;1.40;99.90
11089;DHT22;5598;48.648;8.908;2023-03-11T00:51:21;1.40;99.90
11089;DHT22;5598;48.648;8.908;2023-03-11T00:53:48;1.40;99.90
11089;DHT22;5598;48.648;8.908;2023-03-11T00:56:15;1.40;99.90
11089;DHT22;5598;48.648;8.908;2023-03-11T00:58:43;1.40;99.90
11089;DHT22;5598;48.648;8.908;2023-03-11T01:01:11;1.30;99.90
11089;DHT22;5598;48.648;8.908;2023-03-11T01:03:38;1.40;99.90
11089;DHT22;5598;48.648;8.908;2023-03-11T01:06:06;1.40;99.90
11089;DHT22;5598;48.648;8.908;2023-03-11T01:08:34;1.30;99.90
11089;DHT22;5598;48.648;8.908;2023-03-11T01:11:02;1.40;99.90
11089;DHT22;5598;48.648;8.908;2023-03-11T01:13:29;1.40;99.90
11089;DHT22;5598;48.648;8.908;2023-03-11T01:15:57;1.30;99.90
11089;DHT22;5598;48.648;8.908;2023-03-11T01:18:24;1.30;99.90
11089;DHT22;5598;48.648;8.908;2023-03-11T01:20:51;1.30;99.90
11089;DHT22;5598;48.648;8.908;2023-03-11T01:23:19;1.30;99.90
11089;DHT22;5598;48.648;8.908;2023-03-11T01:25:47;1.30;99.90
11089;DHT22;5598;48.648;8.908;2023-03-11T01:28:14;1.30;99.90
11089;DHT22;5598;48.648;8.908;2023-03-11T01:30:41;1.30;99.90
11089;DHT22;5598;48.648;8.908;2023-03-11T01:33:13;1.20;99.90
11089;DHT22;5598;48.648;8.908;2023-03-11T01:35:40;1.20;99.90
11089;DHT22;5598;48.648;8.908;2023-03-11T01:38:08;1.20;99.90
11089;DHT22;5598;48.648;8.908;2023-03-11T01:40:37;1.20;99.90
11089;DHT22;5598;48.648;8.908;2023-03-11T01:43:38;1.20;99.90
11089;DHT22;5598;48.648;8.908;2023-03-11T01:46:11;1.20;99.90
11089;DHT22;5598;48.648;8.908;2023-03-11T01:48:38;1.10;99.90
11089;DHT22;5598;48.648;8.908;2023-03-11T01:51:07;1.10;99.90
11089;DHT22;5598;48.648;8.908;2023-03-11T01:53:34;1.10;99.90
11089;DHT22;5598;48.648;8.908;2023-03-11T01:56:02;1.20;99.90
11089;DHT22;5598;48.648;8.908;2023-03-11T01:58:33;1.20;99.90
11089;DHT22;5598;48.648;8.908;2023-03-11T02:01:03;1.20;99.90
11089;DHT22;5598;48.648;8.908;2023-03-11T02:03:32;1.10;99.90
11089;DHT22;5598;48.648;8.908;2023-03-11T02:06:00;1.10;99.90
11089;DHT22;5598;48.648;8.908;2023-03-11T02:08:28;1.10;99.90
11089;DHT22;5598;48.648;8.908;2023-03-11T02:11:01;1.00;99.90
11089;DHT22;5598;48.648;8.908;2023-03-11T02:13:28;1.00;99.90
11089;DHT22;5598;48.648;8.908;2023-03-11T02:15:55;0.90;99.90
11089;DHT22;5598;48.648;8.908;2023-03-11T02:18:26;1.00;99.90
11089;DHT22;5598;48.648;8.908;2023-03-11T02:20:58;1.00;99.90
11089;DHT22;5598;48.648;8.908;2023-03-11T02:23:34;1.00;99.90
11089;DHT22;5598;48.648;8.908;2023-03-11T02:26:06;1.00;99.90
11089;DHT22;5598;48.648;8.908;2023-03-11T02:28:36;1.00;99.90
11089;DHT22;5598;48.648;8.908;2023-03-11T02:31:04;0.90;99.90
11089;DHT22;5598;48.648;8.908;2023-03-11T02:33:32;1.00;99.90
11089;DHT22;5598;48.648;8.908;2023-03-11T02:36:00;1.00;99.90
11089;DHT22;5598;48.648;8.908;2023-03-11T02:38:27;1.00;99.90
11089;DHT22;5598;48.648;8.908;2023-03-11T02:40:55;1.00;99.90
11089;DHT22;5598;48.648;8.908;2023-03-11T02:43:26;0.90;99.90
11089;DHT22;5598;48.648;8.908;2023-03-11T02:45:55;0.80;99.90
11089;DHT22;5598;48.648;8.908;2023-03-11T02:48:22;0.80;99.90
11089;DHT22;5598;48.648;8.908;2023-03-11T02:50:50;0.70;99.90
11089;DHT22;5598;48.648;8.908;2023-03-11T02:53:17;0.60;99.90
11089;DHT22;5598;48.648;8.908;2023-03-11T02:55:44;0.50;99.90
11089;DHT22;5598;48.648;8.908;2023-03-11T02:58:10;0.40;99.90
11089;DHT22;5598;48.648;8.908;2023-03-11T03:00:37;0.30;99.90
11089;DHT22;5598;48.648;8.908;2023-03-11T03:03:05;0.20;99.90
11089;DHT22;5598;48.648;8.908;2023-03-11T03:05:33;0.20;99.90
11089;DHT22;5598;48.648;8.908;2023-03-11T03:08:00;0.10;99.90
11089;DHT22;5598;48.648;8.908;2023-03-11T03:10:28;0.10;99.90
11089;DHT22;5598;48.648;8.908;2023-03-11T03:12:54;0.00;99.90
11089;DHT22;5598;48.648;8.908;2023-03-11T03:15:21;0.00;99.90
11089;DHT22;5598;48.648;8.908;2023-03-11T03:17:48;0.00;99.90
11089;DHT22;5598;48.648;8.908;2023-03-11T03:20:17;-0.10;99.90
11089;DHT22;5598;48.648;8.908;2023-03-11T03:22:47;-0.20;99.90
11089;DHT22;5598;48.648;8.908;2023-03-11T03:25:14;-0.20;99.90
11089;DHT22;5598;48.648;8.908;2023-03-11T03:27:41;-0.20;99.90
11089;DHT22;5598;48.648;8.908;2023-03-11T03:30:09;-0.30;99.90
11089;DHT22;5598;48.648;8.908;2023-03-11T03:32:36;-0.30;99.90
11089;DHT22;5598;48.648;8.908;2023-03-11T03:35:04;-0.30;99.90
11089;DHT22;5598;48.648;8.908;2023-03-11T03:37:33;-0.40;99.90
11089;DHT22;5598;48.648;8.908;2023-03-11T03:40:01;-0.50;99.90
11089;DHT22;5598;48.648;8.908;2023-03-11T03:42:32;-0.50;99.90
11089;DHT22;5598;48.648;8.908;2023-03-11T03:44:59;-0.60;99.90
11089;DHT22;5598;48.648;8.908;2023-03-11T03:47:25;-0.60;99.90
11089;DHT22;5598;48.648;8.908;2023-03-11T03:49:52;-0.60;99.90
11089;DHT22;5598;48.648;8.908;2023-03-11T03:52:19;-0.60;99.90
11089;DHT22;5598;48.648;8.908;2023-03-11T03:54:47;-0.60;99.90
11089;DHT22;5598;48.648;8.908;2023-03-11T03:57:14;-0.70;99.90
11089;DHT22;5598;48.648;8.908;2023-03-11T03:59:40;-0.80;99.90
11089;DHT22;5598;48.648;8.908;2023-03-11T04:02:07;-0.80;99.90
11089;DHT22;5598;48.648;8.908;2023-03-11T04:04:34;-0.90;99.90
11089;DHT22;5598;48.648;8.908;2023-03-11T04:07:03;-0.90;99.90
11089;DHT22;5598;48.648;8.908;2023-03-11T04:09:30;-1.00;99.90
11089;DHT22;5598;48.648;8.908;2023-03-11T04:11:58;-1.00;99.90
11089;DHT22;5598;48.648;8.908;2023-03-11T04:14:25;-1.10;99.90
11089;DHT22;5598;48.648;8.908;2023-03-11T04:16:52;-1.20;99.90
11089;DHT22;5598;48.648;8.908;2023-03-11T04:19:19;-1.20;99.90
11089;DHT22;5598;48.648;8.908;2023-03-11T04:21:45;-1.30;99.90
11089;DHT22;5598;48.648;8.908;2023-03-11T04:24:12;-1.30;99.90
11089;DHT22;5598;48.648;8.908;2023-03-11T04:26:39;-1.30;99.90
11089;DHT22;5598;48.648;8.908;2023-03-11T04:29:07;-1.40;99.90
11089;DHT22;5598;48.648;8.908;2023-03-11T04:31:34;-1.40;99.90
11089;DHT22;5598;48.648;8.908;2023-03-11T04:34:01;-1.40;99.90
11089;DHT22;5598;48.648;8.908;2023-03-11T04:36:28;-1.40;99.90
11089;DHT22;5598;48.648;8.908;2023-03-11T04:38:55;-1.40;99.90
11089;DHT22;5598;48.648;8.908;2023-03-11T04:41:22;-1.40;99.90
11089;DHT22;5598;48.648;8.908;2023-03-11T04:43:49;-1.40;99.90
11089;DHT22;5598;48.648;8.908;2023-03-11T04:46:17;-1.40;99.90
11089;DHT22;5598;48.648;8.908;2023-03-11T04:48:44;-1.50;99.90
11089;DHT22;5598;48.648;8.908;2023-03-11T04:51:11;-1.50;99.90
11089;DHT22;5598;48.648;8.908;2023-03-11T04:53:37;-1.50;99.90
11089;DHT22;5598;48.648;8.908;2023-03-11T04:56:04;-1.60;99.90
11089;DHT22;5598;48.648;8.908;2023-03-11T04:58:31;-1.50;99.90
11089;DHT22;5598;48.648;8.908;2023-03-11T05:00:58;-1.50;99.90
11089;DHT22;5598;48.648;8.908;2023-03-11T05:03:26;-1.50;99.90
11089;DHT22;5598;48.648;8.908;2023-03-11T05:05:53;-1.50;99.90
11089;DHT22;5598;48.648;8.908;2023-03-11T05:08:22;-1.60;99.90
11089;DHT22;5598;48.648;8.908;2023-03-11T05:10:50;-1.50;99.90
11089;DHT22;5598;48.648;8.908;2023-03-11T05:13:18;-1.60;99.90
11089;DHT22;5598;48.648;8.908;2023-03-11T05:15:45;-1.70;99.90
11089;DHT22;5598;48.648;8.908;2023-03-11T05:18:12;-1.70;99.90
11089;DHT22;5598;48.648;8.908;2023-03-11T05:20:40;-1.80;99.90
11089;DHT22;5598;48.648;8.908;2023-03-11T05:23:07;-1.80;99.90
11089;DHT22;5598;48.648;8.908;2023-03-11T05:25:34;-1.90;99.90
11089;DHT22;5598;48.648;8.908;2023-03-11T05:28:01;-1.90;99.90
11089;DHT22;5598;48.648;8.908;2023-03-11T05:30:27;-1.90;99.90
11089;DHT22;5598;48.648;8.908;2023-03-11T05:32:54;-1.80;99.90
11089;DHT22;5598;48.648;8.908;2023-03-11T05:35:21;-1.70;99.90
11089;DHT22;5598;48.648;8.908;2023-03-11T05:37:49;-1.70;99.90
11089;DHT22;5598;48.648;8.908;2023-03-11T05:40:18;-1.70;99.90
11089;DHT22;5598;48.648;8.908;2023-03-11T05:42:45;-1.60;99.90
11089;DHT22;5598;48.648;8.908;2023-03-11T05:45:12;-1.60;99.90
11089;DHT22;5598;48.648;8.908;2023-03-11T05:47:39;-1.70;99.90
11089;DHT22;5598;48.648;8.908;2023-03-11T05:50:08;-1.70;99.90
11089;DHT22;5598;48.648;8.908;2023-03-11T05:52:35;-1.70;99.90
11089;DHT22;5598;48.648;8.908;2023-03-11T05:55:03;-1.80;99.90
11089;DHT22;5598;48.648;8.908;2023-03-11T05:57:30;-1.80;99.90
11089;DHT22;5598;48.648;8.908;2023-03-11T05:59:57;-1.80;99.90
11089;DHT22;5598;48.648;8.908;2023-03-11T06:02:24;-1.80;99.90
11089;DHT22;5598;48.648;8.908;2023-03-11T06:04:50;-1.80;99.90
11089;DHT22;5598;48.648;8.908;2023-03-11T06:07:20;-1.60;99.90
11089;DHT22;5598;48.648;8.908;2023-03-11T06:09:49;-1.60;99.90
11089;DHT22;5598;48.648;8.908;2023-03-11T06:12:17;-1.50;99.90
11089;DHT22;5598;48.648;8.908;2023-03-11T06:14:44;-1.40;99.90
11089;DHT22;5598;48.648;8.908;2023-03-11T06:17:11;-1.30;99.90
11089;DHT22;5598;48.648;8.908;2023-03-11T06:19:38;-0.90;99.90
11089;DHT22;5598;48.648;8.908;2023-03-11T06:22:05;-0.40;99.90
11089;DHT22;5598;48.648;8.908;2023-03-11T06:24:32;-0.20;99.90
11089;DHT22;5598;48.648;8.908;2023-03-11T06:26:58;-0.10;99.90
11089;DHT22;5598;48.648;8.908;2023-03-11T06:29:26;0.10;99.90
11089;DHT22;5598;48.648;8.908;2023-03-11T06:31:54;0.40;99.90
11089;DHT22;5598;48.648;8.908;2023-03-11T06:34:21;0.50;99.90
11089;DHT22;5598;48.648;8.908;2023-03-11T06:36:49;1.30;99.90
11089;DHT22;5598;48.648;8.908;2023-03-11T06:39:15;2.40;99.90
11089;DHT22;5598;48.648;8.908;2023-03-11T06:41:42;3.60;99.90
11089;DHT22;5598;48.648;8.908;2023-03-11T06:44:09;4.50;99.90
11089;DHT22;5598;48.648;8.908;2023-03-11T06:46:37;5.10;99.90
11089;DHT22;5598;48.648;8.908;2023-03-11T06:49:04;5.50;99.90
11089;DHT22;5598;48.648;8.908;2023-03-11T06:51:31;5.80;99.90
11089;DHT22;5598;48.648;8.908;2023-03-11T06:53:58;5.90;99.60
11089;DHT22;5598;48.648;8.908;2023-03-11T06:56:25;5.60;96.80
11089;DHT22;5598;48.648;8.908;2023-03-11T06:58:52;5.60;98.30
11089;DHT22;5598;48.648;8.908;2023-03-11T07:01:20;6.00;98.40
11089;DHT22;5598;48.648;8.908;2023-03-11T07:03:49;6.30;95.70
11089;DHT22;5598;48.648;8.908;2023-03-11T07:06:18;6.30;96.80
11089;DHT22;5598;48.648;8.908;2023-03-11T07:08:46;6.50;96.00
11089;DHT22;5598;48.648;8.908;2023-03-11T07:11:15;6.30;95.40
11089;DHT22;5598;48.648;8.908;2023-03-11T07:13:42;5.60;95.50
11089;DHT22;5598;48.648;8.908;2023-03-11T07:16:10;4.90;95.90
11089;DHT22;5598;48.648;8.908;2023-03-11T07:18:40;4.60;96.60
11089;DHT22;5598;48.648;8.908;2023-03-11T07:21:10;4.20;97.00
11089;DHT22;5598;48.648;8.908;2023-03-11T07:23:38;3.70;97.30
11089;DHT22;5598;48.648;8.908;2023-03-11T07:26:07;3.40;97.40
11089;DHT22;5598;48.648;8.908;2023-03-11T07:28:34;3.00;97.60
11089;DHT22;5598;48.648;8.908;2023-03-11T07:31:06;2.80;97.90
11089;DHT22;5598;48.648;8.908;2023-03-11T07:33:33;2.80;98.50
11089;DHT22;5598;48.648;8.908;2023-03-11T07:36:04;2.80;99.10
11089;DHT22;5598;48.648;8.908;2023-03-11T07:38:32;3.30;99.90
11089;DHT22;5598;48.648;8.908;2023-03-11T07:40:59;5.10;99.90
11089;DHT22;5598;48.648;8.908;2023-03-11T07:43:26;7.00;99.40
11089;DHT22;5598;48.648;8.908;2023-03-11T07:46:01;8.60;96.40
11089;DHT22;5598;48.648;8.908;2023-03-11T07:48:28;10.10;93.70
11089;DHT22;5598;48.648;8.908;2023-03-11T07:51:00;10.70;91.00
11089;DHT22;5598;48.648;8.908;2023-03-11T07:53:26;10.40;83.70
11089;DHT22;5598;48.648;8.908;2023-03-11T07:55:56;10.00;83.80
11089;DHT22;5598;48.648;8.908;2023-03-11T07:58:23;9.80;88.40
11089;DHT22;5598;48.648;8.908;2023-03-11T08:00:51;9.90;87.40
11089;DHT22;5598;48.648;8.908;2023-03-11T08:03:19;9.70;90.80
11089;DHT22;5598;48.648;8.908;2023-03-11T08:05:45;8.70;87.70
11089;DHT22;5598;48.648;8.908;2023-03-11T08:08:12;7.90;91.30
11089;DHT22;5598;48.648;8.908;2023-03-11T08:10:39;7.20;92.10
11089;DHT22;5598;48.648;8.908;2023-03-11T08:13:07;6.30;92.10
11089;DHT22;5598;48.648;8.908;2023-03-11T08:15:35;5.70;92.40
11089;DHT22;5598;48.648;8.908;2023-03-11T08:18:02;5.20;91.80
11089;DHT22;5598;48.648;8.908;2023-03-11T08:20:29;4.90;93.00
11089;DHT22;5598;48.648;8.908;2023-03-11T08:22:56;4.70;93.40
11089;DHT22;5598;48.648;8.908;2023-03-11T08:25:23;4.70;92.50
11089;DHT22;5598;48.648;8.908;2023-03-11T08:27:50;4.80;92.20
11089;DHT22;5598;48.648;8.908;2023-03-11T08:30:18;4.80;91.10
11089;DHT22;5598;48.648;8.908;2023-03-11T08:32:45;4.70;92.30
11089;DHT22;5598;48.648;8.908;2023-03-11T08:35:11;4.10;91.10
11089;DHT22;5598;48.648;8.908;2023-03-11T08:37:38;4.00;94.00
11089;DHT22;5598;48.648;8.908;2023-03-11T08:40:06;4.10;94.50
11089;DHT22;5598;48.648;8.908;2023-03-11T08:42:34;3.80;93.20
11089;DHT22;5598;48.648;8.908;2023-03-11T08:45:05;3.80;95.60
11089;DHT22;5598;48.648;8.908;2023-03-11T08:47:34;4.80;96.30
11089;DHT22;5598;48.648;8.908;2023-03-11T08:50:01;6.60;93.00
11089;DHT22;5598;48.648;8.908;2023-03-11T08:52:27;8.10;93.00
11089;DHT22;5598;48.648;8.908;2023-03-11T08:54:54;8.70;90.70
11089;DHT22;5598;48.648;8.908;2023-03-11T08:57:21;10.30;90.20
11089;DHT22;5598;48.648;8.908;2023-03-11T08:59:48;11.70;87.60
11089;DHT22;5598;48.648;8.908;2023-03-11T09:02:14;13.10;81.50
11089;DHT22;5598;48.648;8.908;2023-03-11T09:04:43;14.30;80.00
11089;DHT22;5598;48.648;8.908;2023-03-11T09:07:10;14.20;74.40
11089;DHT22;5598;48.648;8.908;2023-03-11T09:09:38;13.70;79.70
11089;DHT22;5598;48.648;8.908;2023-03-11T09:12:05;13.50;72.30
11089;DHT22;5598;48.648;8.908;2023-03-11T09:14:32;12.40;71.00
11089;DHT22;5598;48.648;8.908;2023-03-11T09:17:00;11.30;73.90
11089;DHT22;5598;48.648;8.908;2023-03-11T09:19:26;10.40;72.70
11089;DHT22;5598;48.648;8.908;2023-03-11T09:21:54;9.70;79.10
11089;DHT22;5598;48.648;8.908;2023-03-11T09:24:21;8.70;78.20
11089;DHT22;5598;48.648;8.908;2023-03-11T09:26:48;8.00;81.70
11089;DHT22;5598;48.648;8.908;2023-03-11T09:29:15;7.60;81.80
11089;DHT22;5598;48.648;8.908;2023-03-11T09:31:41;7.30;81.90
11089;DHT22;5598;48.648;8.908;2023-03-11T09:34:09;7.10;76.10
11089;DHT22;5598;48.648;8.908;2023-03-11T09:36:39;7.00;77.00
11089;DHT22;5598;48.648;8.908;2023-03-11T09:39:07;6.80;75.80
11089;DHT22;5598;48.648;8.908;2023-03-11T09:41:40;6.90;82.70
11089;DHT22;5598;48.648;8.908;2023-03-11T09:44:13;8.40;86.90
11089;DHT22;5598;48.648;8.908;2023-03-11T09:47:02;9.80;77.90
11089;DHT22;5598;48.648;8.908;2023-03-11T09:52:29;9.90;71.80
11089;DHT22;5598;48.648;8.908;2023-03-11T09:55:01;9.00;70.30
11089;DHT22;5598;48.648;8.908;2023-03-11T09:57:32;8.80;74.50
11089;DHT22;5598;48.648;8.908;2023-03-11T10:00:02;10.20;75.00
11089;DHT22;5598;48.648;8.908;2023-03-11T10:02:30;10.00;66.50
11089;DHT22;5598;48.648;8.908;2023-03-11T10:05:01;9.40;76.30
11089;DHT22;5598;48.648;8.908;2023-03-11T10:07:33;8.50;71.30
11089;DHT22;5598;48.648;8.908;2023-03-11T10:10:05;7.80;70.60
11089;DHT22;5598;48.648;8.908;2023-03-11T10:12:42;7.20;70.90
11089;DHT22;5598;48.648;8.908;2023-03-11T10:15:17;6.70;75.10
11089;DHT22;5598;48.648;8.908;2023-03-11T10:17:56;6.20;77.70
11089;DHT22;5598;48.648;8.908;2023-03-11T10:20:30;5.80;75.70
11089;DHT22;5598;48.648;8.908;2023-03-11T10:23:11;5.60;75.60
11089;DHT22;5598;48.648;8.908;2023-03-11T10:25:50;5.50;76.70
11089;DHT22;5598;48.648;8.908;2023-03-11T10:28:21;5.30;75.30
11089;DHT22;5598;48.648;8.908;2023-03-11T10:30:52;5.10;76.70
11089;DHT22;5598;48.648;8.908;2023-03-11T10:33:25;5.20;78.70
11089;DHT22;5598;48.648;8.908;2023-03-11T10:35:57;5.60;84.20
11089;DHT22;5598;48.648;8.908;2023-03-11T10:38:26;6.50;87.30
11089;DHT22;5598;48.648;8.908;2023-03-11T10:40:58;7.50;80.60
11089;DHT22;5598;48.648;8.908;2023-03-11T10:43:27;8.60;77.40
11089;DHT22;5598;48.648;8.908;2023-03-11T10:45:54;9.30;81.90
11089;DHT22;5598;48.648;8.908;2023-03-11T10:48:21;10.60;77.60
11089;DHT22;5598;48.648;8.908;2023-03-11T10:50:54;12.00;79.90
11089;DHT22;5598;48.648;8.908;2023-03-11T10:53:23;14.20;80.80
11089;DHT22;5598;48.648;8.908;2023-03-11T10:55:51;15.90;75.90
11089;DHT22;5598;48.648;8.908;2023-03-11T10:58:21;17.20;70.10
11089;DHT22;5598;48.648;8.908;2023-03-11T11:01:00;18.50;70.30
11089;DHT22;5598;48.648;8.908;2023-03-11T11:03:26;19.50;60.70
11089;DHT22;5598;48.648;8.908;2023-03-11T11:05:59;20.00;60.60
11089;DHT22;5598;48.648;8.908;2023-03-11T11:08:26;20.20;66.00
11089;DHT22;5598;48.648;8.908;2023-03-11T11:10:55;21.00;65.00
11089;DHT22;5598;48.648;8.908;2023-03-11T11:13:24;19.10;59.80
11089;DHT22;5598;48.648;8.908;2023-03-11T11:15:54;17.30;55.50
11089;DHT22;5598;48.648;8.908;2023-03-11T11:18:23;17.50;57.30
11089;DHT22;5598;48.648;8.908;2023-03-11T11:20:56;17.70;56.10
11089;DHT22;5598;48.648;8.908;2023-03-11T11:23:26;16.10;55.00
11089;DHT22;5598;48.648;8.908;2023-03-11T11:25:57;14.70;58.30
11089;DHT22;5598;48.648;8.908;2023-03-11T11:28:26;15.30;52.40
11089;DHT22;5598;48.648;8.908;2023-03-11T11:30:56;15.60;63.20
11089;DHT22;5598;48.648;8.908;2023-03-11T11:33:26;16.20;51.30
11089;DHT22;5598;48.648;8.908;2023-03-11T11:35:55;16.50;59.10
11089;DHT22;5598;48.648;8.908;2023-03-11T11:38:24;17.00;52.10
11089;DHT22;5598;48.648;8.908;2023-03-11T11:40:54;16.10;54.80
11089;DHT22;5598;48.648;8.908;2023-03-11T11:43:29;16.20;62.50
11089;DHT22;5598;48.648;8.908;2023-03-11T11:46:01;16.90;52.70
11089;DHT22;5598;48.648;8.908;2023-03-11T11:48:34;17.00;56.50
11089;DHT22;5598;48.648;8.908;2023-03-11T11:51:12;16.60;56.70
11089;DHT22;5598;48.648;8.908;2023-03-11T11:53:45;16.30;55.60
11089;DHT22;5598;48.648;8.908;2023-03-11T11:56:14;16.20;57.00
11089;DHT22;5598;48.648;8.908;2023-03-11T11:58:43;16.20;50.80
11089;DHT22;5598;48.648;8.908;2023-03-11T12:01:14;16.20;62.80
11089;DHT22;5598;48.648;8.908;2023-03-11T12:06:45;17.50;60.90
11089;DHT22;5598;48.648;8.908;2023-03-11T12:09:19;17.30;55.00
11089;DHT22;5598;48.648;8.908;2023-03-11T12:11:55;15.80;55.90
11089;DHT22;5598;48.648;8.908;2023-03-11T12:14:29;15.10;59.70
11089;DHT22;5598;48.648;8.908;2023-03-11T12:17:00;14.70;56.20
11089;DHT22;5598;48.648;8.908;2023-03-11T12:19:34;14.70;57.00
11089;DHT22;5598;48.648;8.908;2023-03-11T12:22:40;14.80;53.50
11089;DHT22;5598;48.648;8.908;2023-03-11T12:25:20;15.00;52.60
11089;DHT22;5598;48.648;8.908;2023-03-11T12:27:52;14.40;52.50
11089;DHT22;5598;48.648;8.908;2023-03-11T12:30:24;14.50;58.30
11089;DHT22;5598;48.648;8.908;2023-03-11T12:32:55;14.50;50.40
11089;DHT22;5598;48.648;8.908;2023-03-11T12:35:24;14.70;61.50
11089;DHT22;5598;48.648;8.908;2023-03-11T12:38:02;15.00;55.30
11089;DHT22;5598;48.648;8.908;2023-03-11T12:40:47;15.30;58.70
11089;DHT22;5598;48.648;8.908;2023-03-11T12:49:37;15.40;56.30
11089;DHT22;5598;48.648;8.908;2023-03-11T12:52:17;14.70;55.50
11089;DHT22;5598;48.648;8.908;2023-03-11T12:54:46;14.10;57.50
11089;DHT22;5598;48.648;8.908;2023-03-11T12:57:29;13.40;55.40
11089;DHT22;5598;48.648;8.908;2023-03-11T13:00:21;13.20;56.50
11089;DHT22;5598;48.648;8.908;2023-03-11T13:03:11;12.60;53.30
11089;DHT22;5598;48.648;8.908;2023-03-11T13:05:50;12.10;54.90
11089;DHT22;5598;48.648;8.908;2023-03-11T13:08:21;12.50;59.80
11089;DHT22;5598;48.648;8.908;2023-03-11T13:10:49;12.80;56.00
11089;DHT22;5598;48.648;8.908;2023-03-11T13:13:30;12.60;60.70
11089;DHT22;5598;48.648;8.908;2023-03-11T13:16:33;11.90;63.70
11089;DHT22;5598;48.648;8.908;2023-03-11T13:18:47;12.40;70.40
11089;DHT22;5598;48.648;8.908;2023-03-11T13:21:37;12.60;64.30
11089;DHT22;5598;48.648;8.908;2023-03-11T13:24:39;12.40;59.00
11089;DHT22;5598;48.648;8.908;2023-03-11T13:27:10;12.00;59.20
11089;DHT22;5598;48.648;8.908;2023-03-11T13:29:51;12.00;60.50
11089;DHT22;5598;48.648;8.908;2023-03-11T13:35:35;12.30;57.50
11089;DHT22;5598;48.648;8.908;2023-03-11T13:38:23;11.30;58.80
11089;DHT22;5598;48.648;8.908;2023-03-11T13:40:59;9.80;63.10
11089;DHT22;5598;48.648;8.908;2023-03-11T13:43:27;9.00;63.60
11089;DHT22;5598;48.648;8.908;2023-03-11T13:45:58;9.10;62.30
11089;DHT22;5598;48.648;8.908;2023-03-11T13:48:29;9.50;64.10
11089;DHT22;5598;48.648;8.908;2023-03-11T13:51:00;9.80;65.00
11089;DHT22;5598;48.648;8.908;2023-03-11T13:53:33;9.90;67.30
11089;DHT22;5598;48.648;8.908;2023-03-11T13:56:01;10.00;60.60
11089;DHT22;5598;48.648;8.908;2023-03-11T13:58:29;10.20;60.20
11089;DHT22;5598;48.648;8.908;2023-03-11T14:00:57;10.40;57.50
11089;DHT22;5598;48.648;8.908;2023-03-11T14:03:25;10.40;60.50
11089;DHT22;5598;48.648;8.908;2023-03-11T14:06:01;10.40;62.90
11089;DHT22;5598;48.648;8.908;2023-03-11T14:08:30;10.00;60.60
11089;DHT22;5598;48.648;8.908;2023-03-11T14:10:58;10.00;62.00
11089;DHT22;5598;48.648;8.908;2023-03-11T14:13:26;10.30;61.20
11089;DHT22;5598;48.648;8.908;2023-03-11T14:15:59;10.40;57.40
11089;DHT22;5598;48.648;8.908;2023-03-11T14:18:30;10.40;58.70
11089;DHT22;5598;48.648;8.908;2023-03-11T14:20:59;10.30;58.70
11089;DHT22;5598;48.648;8.908;2023-03-11T14:23:29;9.90;57.00
11089;DHT22;5598;48.648;8.908;2023-03-11T14:26:00;9.90;65.20
11089;DHT22;5598;48.648;8.908;2023-03-11T14:28:32;9.60;56.50
11089;DHT22;5598;48.648;8.908;2023-03-11T14:31:01;9.50;62.30
11089;DHT22;5598;48.648;8.908;2023-03-11T14:33:28;9.70;64.30
11089;DHT22;5598;48.648;8.908;2023-03-11T14:35:56;10.00;63.60
11089;DHT22;5598;48.648;8.908;2023-03-11T14:38:26;10.20;60.20
11089;DHT22;5598;48.648;8.908;2023-03-11T14:40:55;10.50;63.40
11089;DHT22;5598;48.648;8.908;2023-03-11T14:43:22;10.50;61.70
11089;DHT22;5598;48.648;8.908;2023-03-11T14:45:50;10.50;64.50
11089;DHT22;5598;48.648;8.908;2023-03-11T14:48:21;10.50;64.40
11089;DHT22;5598;48.648;8.908;2023-03-11T14:50:50;10.40;63.70
11089;DHT22;5598;48.648;8.908;2023-03-11T14:53:22;10.40;64.70
11089;DHT22;5598;48.648;8.908;2023-03-11T14:55:55;10.40;60.90
11089;DHT22;5598;48.648;8.908;2023-03-11T14:58:27;10.40;61.50
11089;DHT22;5598;48.648;8.908;2023-03-11T15:00:58;10.30;63.50
11089;DHT22;5598;48.648;8.908;2023-03-11T15:03:27;10.10;64.70
11089;DHT22;5598;48.648;8.908;2023-03-11T15:05:57;10.00;63.90
11089;DHT22;5598;48.648;8.908;2023-03-11T15:08:27;9.90;66.50
11089;DHT22;5598;48.648;8.908;2023-03-11T15:11:18;9.90;67.60
11089;DHT22;5598;48.648;8.908;2023-03-11T15:13:46;9.90;65.30
11089;DHT22;5598;48.648;8.908;2023-03-11T15:16:23;9.90;66.40
11089;DHT22;5598;48.648;8.908;2023-03-11T15:18:50;9.80;66.10
11089;DHT22;5598;48.648;8.908;2023-03-11T15:21:20;9.80;66.40
11089;DHT22;5598;48.648;8.908;2023-03-11T15:23:49;9.80;68.80
11089;DHT22;5598;48.648;8.908;2023-03-11T15:26:20;9.80;67.40
11089;DHT22;5598;48.648;8.908;2023-03-11T15:28:53;9.70;63.40
11089;DHT22;5598;48.648;8.908;2023-03-11T15:31:32;9.60;64.20
11089;DHT22;5598;48.648;8.908;2023-03-11T15:34:27;9.50;65.10
11089;DHT22;5598;48.648;8.908;2023-03-11T15:37:19;9.40;66.70
11089;DHT22;5598;48.648;8.908;2023-03-11T15:39:48;9.40;67.40
11089;DHT22;5598;48.648;8.908;2023-03-11T15:42:22;9.40;68.10
11089;DHT22;5598;48.648;8.908;2023-03-11T15:45:02;9.30;68.70
11089;DHT22;5598;48.648;8.908;2023-03-11T15:47:30;9.20;68.70
11089;DHT22;5598;48.648;8.908;2023-03-11T15:49:56;9.00;67.90
11089;DHT22;5598;48.648;8.908;2023-03-11T15:52:24;8.90;69.00
11089;DHT22;5598;48.648;8.908;2023-03-11T15:54:50;8.80;69.80
11089;DHT22;5598;48.648;8.908;2023-03-11T15:57:24;8.70;69.60
11089;DHT22;5598;48.648;8.908;2023-03-11T15:59:53;8.60;66.10
11089;DHT22;5598;48.648;8.908;2023-03-11T16:02:22;8.50;67.00
11089;DHT22;5598;48.648;8.908;2023-03-11T16:04:49;8.40;68.10
11089;DHT22;5598;48.648;8.908;2023-03-11T16:07:16;8.30;69.90
11089;DHT22;5598;48.648;8.908;2023-03-11T16:09:43;8.30;70.60
11089;DHT22;5598;48.648;8.908;2023-03-11T16:12:13;8.20;70.80
11089;DHT22;5598;48.648;8.908;2023-03-11T16:14:41;8.10;68.70
11089;DHT22;5598;48.648;8.908;2023-03-11T16:17:08;8.00;71.70
11089;DHT22;5598;48.648;8.908;2023-03-11T16:19:39;7.90;71.60
11089;DHT22;5598;48.648;8.908;2023-03-11T16:22:06;7.80;70.60
11089;DHT22;5598;48.648;8.908;2023-03-11T16:24:32;7.70;70.50
11089;DHT22;5598;48.648;8.908;2023-03-11T16:26:59;7.70;71.40